sensor_id;sensor_type;location;lat;lon;timestamp;temperature;humidity
44747;DHT22;30472;49.490;10.972;2023-07-31T00:01:21;15.90;99.90
44747;DHT22;30472;49.490;10.972;2023-07-31T00:03:46;15.90;99.90
44747;DHT22;30472;49.490;10.972;2023-07-31T00:06:12;15.80;99.90
44747;DHT22;30472;49.490;10.972;2023-07-31T00:08:38;15.90;99.90
44747;DHT22;30472;49.490;10.972;2023-07-31T00:11:03;15.90;99.90
44747;DHT22;30472;49.490;10.972;2023-07-31T00:13:29;15.90;99.90
44747;DHT22;30472;49.490;10.972;2023-07-31T00:15:54;15.80;99.90
44747;DHT22;30472;49.490;10.972;2023-07-31T00:18:20;15.90;99.90
44747;DHT22;30472;49.490;10.972;2023-07-31T00:20:46;15.80;99.90
44747;DHT22;30472;49.490;10.972;2023-07-31T00:23:11;15.90;99.90
44747;DHT22;30472;49.490;10.972;2023-07-31T00:25:37;15.90;99.90
44747;DHT22;30472;49.490;10.972;2023-07-31T00:28:02;15.90;99.90
44747;DHT22;30472;49.490;10.972;2023-07-31T00:30:28;16.00;99.90
44747;DHT22;30472;49.490;10.972;2023-07-31T00:32:54;15.90;99.90
44747;DHT22;30472;49.490;10.972;2023-07-31T00:35:19;15.90;99.90
44747;DHT22;30472;49.490;10.972;2023-07-31T00:37:45;15.90;99.90
44747;DHT22;30472;49.490;10.972;2023-07-31T00:40:11;16.00;99.90
44747;DHT22;30472;49.490;10.972;2023-07-31T00:42:37;16.00;99.90
44747;DHT22;30472;49.490;10.972;2023-07-31T00:45:02;16.00;99.90
44747;DHT22;30472;49.490;10.972;2023-07-31T00:47:28;16.00;99.90
44747;DHT22;30472;49.490;10.972;2023-07-31T00:49:54;16.00;99.90
44747;DHT22;30472;49.490;10.972;2023-07-31T00:52:20;16.10;99.90
44747;DHT22;30472;49.490;10.972;2023-07-31T00:54:46;16.10;99.90
44747;DHT22;30472;49.490;10.972;2023-07-31T00:57:11;16.00;99.90
44747;DHT22;30472;49.490;10.972;2023-07-31T00:59:37;16.10;99.90
44747;DHT22;30472;49.490;10.972;2023-07-31T01:02:03;16.00;99.90
44747;DHT22;30472;49.490;10.972;2023-07-31T01:04:29;16.00;99.90
44747;DHT22;30472;49.490;10.972;2023-07-31T01:09:40;16.10;99.90
44747;DHT22;30472;49.490;10.972;2023-07-31T01:12:09;16.10;99.90
44747;DHT22;30472;49.490;10.972;2023-07-31T01:14:38;16.10;99.90
44747;DHT22;30472;49.490;10.972;2023-07-31T01:17:04;16.10;99.90
44747;DHT22;30472;49.490;10.972;2023-07-31T01:19:29;16.10;99.90
44747;DHT22;30472;49.490;10.972;2023-07-31T01:25:23;16.20;99.90
44747;DHT22;30472;49.490;10.972;2023-07-31T01:27:30;16.20;99.90
44747;DHT22;30472;49.490;10.972;2023-07-31T01:30:05;16.20;99.90
44747;DHT22;30472;49.490;10.972;2023-07-31T01:32:37;16.20;99.90
44747;DHT22;30472;49.490;10.972;2023-07-31T01:35:05;16.20;99.90
44747;DHT22;30472;49.490;10.972;2023-07-31T01:37:30;16.20;99.90
44747;DHT22;30472;49.490;10.972;2023-07-31T01:39:56;16.20;99.90
44747;DHT22;30472;49.490;10.972;2023-07-31T01:42:21;16.20;99.90
44747;DHT22;30472;49.490;10.972;2023-07-31T01:44:47;16.20;99.90
44747;DHT22;30472;49.490;10.972;2023-07-31T01:47:12;16.20;99.90
44747;DHT22;30472;49.490;10.972;2023-07-31T01:49:38;16.20;99.90
44747;DHT22;30472;49.490;10.972;2023-07-31T01:52:04;16.20;99.90
44747;DHT22;30472;49.490;10.972;2023-07-31T01:54:29;16.30;99.90
44747;DHT22;30472;49.490;10.972;2023-07-31T01:56:55;16.20;99.90
44747;DHT22;30472;49.490;10.972;2023-07-31T01:59:21;16.20;99.90
44747;DHT22;30472;49.490;10.972;2023-07-31T02:01:46;16.20;99.90
44747;DHT22;30472;49.490;10.972;2023-07-31T02:04:12;16.20;99.90
44747;DHT22;30472;49.490;10.972;2023-07-31T02:06:39;16.20;99.90
44747;DHT22;30472;49.490;10.972;2023-07-31T02:09:04;16.20;99.90
44747;DHT22;30472;49.490;10.972;2023-07-31T02:11:30;16.30;99.90
44747;DHT22;30472;49.490;10.972;2023-07-31T02:13:56;16.20;99.90
44747;DHT22;30472;49.490;10.972;2023-07-31T02:16:21;16.30;99.90
44747;DHT22;30472;49.490;10.972;2023-07-31T02:18:47;16.30;99.90
44747;DHT22;30472;49.490;10.972;2023-07-31T02:21:12;16.30;99.90
44747;DHT22;30472;49.490;10.972;2023-07-31T02:23:38;16.30;99.90
44747;DHT22;30472;49.490;10.972;2023-07-31T02:26:03;16.30;99.90
44747;DHT22;30472;49.490;10.972;2023-07-31T02:28:29;16.30;99.90
44747;DHT22;30472;49.490;10.972;2023-07-31T02:30:55;16.30;99.90
44747;DHT22;30472;49.490;10.972;2023-07-31T02:33:20;16.30;99.90
44747;DHT22;30472;49.490;10.972;2023-07-31T02:35:46;16.20;99.90
44747;DHT22;30472;49.490;10.972;2023-07-31T02:38:12;16.20;99.90
44747;DHT22;30472;49.490;10.972;2023-07-31T02:40:38;16.20;99.90
44747;DHT22;30472;49.490;10.972;2023-07-31T02:43:04;16.20;99.90
44747;DHT22;30472;49.490;10.972;2023-07-31T02:45:29;16.20;99.90
44747;DHT22;30472;49.490;10.972;2023-07-31T02:47:55;16.20;99.90
44747;DHT22;30472;49.490;10.972;2023-07-31T02:50:21;16.10;99.90
44747;DHT22;30472;49.490;10.972;2023-07-31T02:52:46;16.20;99.90
44747;DHT22;30472;49.490;10.972;2023-07-31T02:55:12;16.20;99.90
44747;DHT22;30472;49.490;10.972;2023-07-31T02:57:37;16.10;99.90
44747;DHT22;30472;49.490;10.972;2023-07-31T03:00:03;16.10;99.90
44747;DHT22;30472;49.490;10.972;2023-07-31T03:02:31;16.10;99.90
44747;DHT22;30472;49.490;10.972;2023-07-31T03:04:57;16.10;99.90
44747;DHT22;30472;49.490;10.972;2023-07-31T03:07:22;16.10;99.90
44747;DHT22;30472;49.490;10.972;2023-07-31T03:09:48;16.10;99.90
44747;DHT22;30472;49.490;10.972;2023-07-31T03:12:13;16.10;99.90
44747;DHT22;30472;49.490;10.972;2023-07-31T03:14:39;16.10;99.90
44747;DHT22;30472;49.490;10.972;2023-07-31T03:17:05;16.10;99.90
44747;DHT22;30472;49.490;10.972;2023-07-31T03:19:31;16.10;99.90
44747;DHT22;30472;49.490;10.972;2023-07-31T03:21:58;16.10;99.90
44747;DHT22;30472;49.490;10.972;2023-07-31T03:24:23;16.10;99.90
44747;DHT22;30472;49.490;10.972;2023-07-31T03:26:49;16.10;99.90
44747;DHT22;30472;49.490;10.972;2023-07-31T03:29:14;16.00;99.90
44747;DHT22;30472;49.490;10.972;2023-07-31T03:31:40;16.10;99.90
44747;DHT22;30472;49.490;10.972;2023-07-31T03:34:06;16.00;99.90
44747;DHT22;30472;49.490;10.972;2023-07-31T03:36:31;16.00;99.90
44747;DHT22;30472;49.490;10.972;2023-07-31T03:38:57;16.00;99.90
44747;DHT22;30472;49.490;10.972;2023-07-31T03:41:22;15.90;99.90
44747;DHT22;30472;49.490;10.972;2023-07-31T03:43:49;15.80;99.90
44747;DHT22;30472;49.490;10.972;2023-07-31T03:46:17;15.80;99.90
44747;DHT22;30472;49.490;10.972;2023-07-31T03:48:43;15.70;99.90
44747;DHT22;30472;49.490;10.972;2023-07-31T03:51:08;15.70;99.90
44747;DHT22;30472;49.490;10.972;2023-07-31T03:53:34;15.60;99.90
44747;DHT22;30472;49.490;10.972;2023-07-31T03:55:59;15.60;99.90
44747;DHT22;30472;49.490;10.972;2023-07-31T03:58:25;15.60;99.90
44747;DHT22;30472;49.490;10.972;2023-07-31T04:00:50;15.60;99.90
44747;DHT22;30472;49.490;10.972;2023-07-31T04:03:16;15.60;99.90
44747;DHT22;30472;49.490;10.972;2023-07-31T04:05:41;15.60;99.90
44747;DHT22;30472;49.490;10.972;2023-07-31T04:08:07;15.70;99.90
44747;DHT22;30472;49.490;10.972;2023-07-31T04:10:33;15.60;99.90
44747;DHT22;30472;49.490;10.972;2023-07-31T04:12:59;15.70;99.90
44747;DHT22;30472;49.490;10.972;2023-07-31T04:15:26;15.70;99.90
44747;DHT22;30472;49.490;10.972;2023-07-31T04:17:51;15.60;99.90
44747;DHT22;30472;49.490;10.972;2023-07-31T04:20:17;15.70;99.90
44747;DHT22;30472;49.490;10.972;2023-07-31T04:22:42;15.60;99.90
44747;DHT22;30472;49.490;10.972;2023-07-31T04:25:08;15.60;99.90
44747;DHT22;30472;49.490;10.972;2023-07-31T04:27:33;15.60;99.90
44747;DHT22;30472;49.490;10.972;2023-07-31T04:29:59;15.60;99.90
44747;DHT22;30472;49.490;10.972;2023-07-31T04:32:25;15.60;99.90
44747;DHT22;30472;49.490;10.972;2023-07-31T04:34:50;15.60;99.90
44747;DHT22;30472;49.490;10.972;2023-07-31T04:37:16;15.60;99.90
44747;DHT22;30472;49.490;10.972;2023-07-31T04:39:41;15.60;99.90
44747;DHT22;30472;49.490;10.972;2023-07-31T04:42:07;15.60;99.90
44747;DHT22;30472;49.490;10.972;2023-07-31T04:44:32;15.60;99.90
44747;DHT22;30472;49.490;10.972;2023-07-31T04:46:58;15.60;99.90
44747;DHT22;30472;49.490;10.972;2023-07-31T04:49:23;15.70;99.90
44747;DHT22;30472;49.490;10.972;2023-07-31T04:51:49;15.70;99.90
44747;DHT22;30472;49.490;10.972;2023-07-31T04:54:14;15.70;99.90
44747;DHT22;30472;49.490;10.972;2023-07-31T04:56:40;15.80;99.90
44747;DHT22;30472;49.490;10.972;2023-07-31T04:59:06;15.80;99.90
44747;DHT22;30472;49.490;10.972;2023-07-31T05:01:32;15.80;99.90
44747;DHT22;30472;49.490;10.972;2023-07-31T05:03:58;15.90;99.90
44747;DHT22;30472;49.490;10.972;2023-07-31T05:06:23;15.90;99.90
44747;DHT22;30472;49.490;10.972;2023-07-31T05:08:49;15.90;99.90
44747;DHT22;30472;49.490;10.972;2023-07-31T05:11:15;15.90;99.90
44747;DHT22;30472;49.490;10.972;2023-07-31T05:13:40;16.00;99.90
44747;DHT22;30472;49.490;10.972;2023-07-31T05:16:06;16.00;99.90
44747;DHT22;30472;49.490;10.972;2023-07-31T05:18:31;16.00;99.90
44747;DHT22;30472;49.490;10.972;2023-07-31T05:20:57;16.10;99.90
44747;DHT22;30472;49.490;10.972;2023-07-31T05:23:22;16.20;99.90
44747;DHT22;30472;49.490;10.972;2023-07-31T05:25:48;16.20;99.90
44747;DHT22;30472;49.490;10.972;2023-07-31T05:28:13;16.30;99.90
44747;DHT22;30472;49.490;10.972;2023-07-31T05:30:39;16.40;99.90
44747;DHT22;30472;49.490;10.972;2023-07-31T05:33:05;16.50;99.90
44747;DHT22;30472;49.490;10.972;2023-07-31T05:35:30;16.60;99.90
44747;DHT22;30472;49.490;10.972;2023-07-31T05:37:56;16.60;99.90
44747;DHT22;30472;49.490;10.972;2023-07-31T05:40:21;16.60;99.90
44747;DHT22;30472;49.490;10.972;2023-07-31T05:42:47;16.70;99.90
44747;DHT22;30472;49.490;10.972;2023-07-31T05:45:12;16.70;99.90
44747;DHT22;30472;49.490;10.972;2023-07-31T05:47:39;16.80;99.90
44747;DHT22;30472;49.490;10.972;2023-07-31T05:50:05;16.90;99.90
44747;DHT22;30472;49.490;10.972;2023-07-31T05:52:30;16.90;99.90
44747;DHT22;30472;49.490;10.972;2023-07-31T05:54:56;17.00;99.90
44747;DHT22;30472;49.490;10.972;2023-07-31T05:57:22;17.10;99.90
44747;DHT22;30472;49.490;10.972;2023-07-31T05:59:47;17.20;99.90
44747;DHT22;30472;49.490;10.972;2023-07-31T06:02:13;17.30;99.90
44747;DHT22;30472;49.490;10.972;2023-07-31T06:04:38;17.30;99.90
44747;DHT22;30472;49.490;10.972;2023-07-31T06:07:04;17.30;99.90
44747;DHT22;30472;49.490;10.972;2023-07-31T06:09:30;17.40;99.90
44747;DHT22;30472;49.490;10.972;2023-07-31T06:11:55;17.50;99.90
44747;DHT22;30472;49.490;10.972;2023-07-31T06:14:21;17.60;99.90
44747;DHT22;30472;49.490;10.972;2023-07-31T06:16:46;17.60;99.90
44747;DHT22;30472;49.490;10.972;2023-07-31T06:19:12;17.80;99.90
44747;DHT22;30472;49.490;10.972;2023-07-31T06:21:38;17.90;99.90
44747;DHT22;30472;49.490;10.972;2023-07-31T06:24:07;18.00;99.90
44747;DHT22;30472;49.490;10.972;2023-07-31T06:26:33;18.10;99.90
44747;DHT22;30472;49.490;10.972;2023-07-31T06:28:58;18.20;99.90
44747;DHT22;30472;49.490;10.972;2023-07-31T06:31:24;18.20;99.90
44747;DHT22;30472;49.490;10.972;2023-07-31T06:33:51;18.10;99.90
44747;DHT22;30472;49.490;10.972;2023-07-31T06:36:16;18.10;99.90
44747;DHT22;30472;49.490;10.972;2023-07-31T06:38:42;18.00;99.90
44747;DHT22;30472;49.490;10.972;2023-07-31T06:41:08;18.10;99.90
44747;DHT22;30472;49.490;10.972;2023-07-31T06:43:33;18.10;99.90
44747;DHT22;30472;49.490;10.972;2023-07-31T06:46:05;18.20;99.90
44747;DHT22;30472;49.490;10.972;2023-07-31T06:48:31;18.50;99.90
44747;DHT22;30472;49.490;10.972;2023-07-31T06:50:56;18.70;99.90
44747;DHT22;30472;49.490;10.972;2023-07-31T06:53:22;18.80;99.90
44747;DHT22;30472;49.490;10.972;2023-07-31T06:55:47;18.90;99.90
44747;DHT22;30472;49.490;10.972;2023-07-31T06:58:13;19.00;99.90
44747;DHT22;30472;49.490;10.972;2023-07-31T07:00:39;19.20;99.90
44747;DHT22;30472;49.490;10.972;2023-07-31T07:03:04;19.60;99.90
44747;DHT22;30472;49.490;10.972;2023-07-31T07:05:30;19.40;99.90
44747;DHT22;30472;49.490;10.972;2023-07-31T07:07:55;19.50;99.90
44747;DHT22;30472;49.490;10.972;2023-07-31T07:10:21;19.80;99.90
44747;DHT22;30472;49.490;10.972;2023-07-31T07:12:47;19.70;99.90
44747;DHT22;30472;49.490;10.972;2023-07-31T07:15:13;19.70;99.90
44747;DHT22;30472;49.490;10.972;2023-07-31T07:17:38;19.60;99.90
44747;DHT22;30472;49.490;10.972;2023-07-31T07:20:04;19.60;99.90
44747;DHT22;30472;49.490;10.972;2023-07-31T07:22:30;20.00;99.90
44747;DHT22;30472;49.490;10.972;2023-07-31T07:24:55;20.00;99.90
44747;DHT22;30472;49.490;10.972;2023-07-31T07:27:21;19.60;99.90
44747;DHT22;30472;49.490;10.972;2023-07-31T07:29:47;19.80;99.90
44747;DHT22;30472;49.490;10.972;2023-07-31T07:32:12;19.60;99.90
44747;DHT22;30472;49.490;10.972;2023-07-31T07:34:38;19.70;99.90
44747;DHT22;30472;49.490;10.972;2023-07-31T07:37:04;19.50;99.90
44747;DHT22;30472;49.490;10.972;2023-07-31T07:39:29;19.50;99.90
44747;DHT22;30472;49.490;10.972;2023-07-31T07:41:55;19.50;99.90
44747;DHT22;30472;49.490;10.972;2023-07-31T07:44:20;19.20;99.90
44747;DHT22;30472;49.490;10.972;2023-07-31T07:46:46;19.30;99.90
44747;DHT22;30472;49.490;10.972;2023-07-31T07:49:12;19.40;99.90
44747;DHT22;30472;49.490;10.972;2023-07-31T07:51:37;19.50;99.90
44747;DHT22;30472;49.490;10.972;2023-07-31T07:54:03;19.50;99.90
44747;DHT22;30472;49.490;10.972;2023-07-31T07:56:28;19.60;99.90
44747;DHT22;30472;49.490;10.972;2023-07-31T07:58:54;19.40;99.90
44747;DHT22;30472;49.490;10.972;2023-07-31T08:01:20;19.50;99.90
44747;DHT22;30472;49.490;10.972;2023-07-31T08:03:47;19.80;99.90
44747;DHT22;30472;49.490;10.972;2023-07-31T08:06:13;19.80;99.90
44747;DHT22;30472;49.490;10.972;2023-07-31T08:08:39;19.50;99.90
44747;DHT22;30472;49.490;10.972;2023-07-31T08:11:05;19.80;99.90
44747;DHT22;30472;49.490;10.972;2023-07-31T08:13:30;20.30;99.90
44747;DHT22;30472;49.490;10.972;2023-07-31T08:15:56;20.50;99.90
44747;DHT22;30472;49.490;10.972;2023-07-31T08:18:22;20.90;99.90
44747;DHT22;30472;49.490;10.972;2023-07-31T08:20:47;20.70;99.90
44747;DHT22;30472;49.490;10.972;2023-07-31T08:23:13;20.60;99.90
44747;DHT22;30472;49.490;10.972;2023-07-31T08:25:39;20.60;99.90
44747;DHT22;30472;49.490;10.972;2023-07-31T08:28:06;21.20;99.90
44747;DHT22;30472;49.490;10.972;2023-07-31T08:30:32;21.30;99.90
44747;DHT22;30472;49.490;10.972;2023-07-31T08:32:58;21.80;99.90
44747;DHT22;30472;49.490;10.972;2023-07-31T08:35:24;21.20;99.90
44747;DHT22;30472;49.490;10.972;2023-07-31T08:37:50;20.80;99.90
44747;DHT22;30472;49.490;10.972;2023-07-31T08:40:16;21.10;99.90
44747;DHT22;30472;49.490;10.972;2023-07-31T08:42:50;21.10;99.90
44747;DHT22;30472;49.490;10.972;2023-07-31T08:45:19;21.40;99.90
44747;DHT22;30472;49.490;10.972;2023-07-31T08:47:47;21.80;99.90
44747;DHT22;30472;49.490;10.972;2023-07-31T08:50:14;21.60;99.90
44747;DHT22;30472;49.490;10.972;2023-07-31T08:52:40;21.50;99.90
44747;DHT22;30472;49.490;10.972;2023-07-31T08:55:06;21.70;99.90
44747;DHT22;30472;49.490;10.972;2023-07-31T08:57:35;21.90;99.90
44747;DHT22;30472;49.490;10.972;2023-07-31T09:00:04;22.10;99.90
44747;DHT22;30472;49.490;10.972;2023-07-31T09:05:12;22.80;99.90
44747;DHT22;30472;49.490;10.972;2023-07-31T09:07:38;22.00;99.90
44747;DHT22;30472;49.490;10.972;2023-07-31T09:10:05;22.30;99.90
44747;DHT22;30472;49.490;10.972;2023-07-31T09:12:31;23.00;99.90
44747;DHT22;30472;49.490;10.972;2023-07-31T09:14:57;24.50;99.90
44747;DHT22;30472;49.490;10.972;2023-07-31T09:17:34;24.80;99.90
44747;DHT22;30472;49.490;10.972;2023-07-31T09:20:17;24.10;99.90
44747;DHT22;30472;49.490;10.972;2023-07-31T09:22:44;24.10;99.90
44747;DHT22;30472;49.490;10.972;2023-07-31T09:25:21;23.90;99.90
44747;DHT22;30472;49.490;10.972;2023-07-31T09:27:59;22.80;99.90
44747;DHT22;30472;49.490;10.972;2023-07-31T09:30:25;22.40;99.90
44747;DHT22;30472;49.490;10.972;2023-07-31T09:32:52;22.40;99.90
44747;DHT22;30472;49.490;10.972;2023-07-31T09:35:32;22.20;99.90
44747;DHT22;30472;49.490;10.972;2023-07-31T09:38:00;23.40;99.90
44747;DHT22;30472;49.490;10.972;2023-07-31T09:43:08;23.90;99.90
44747;DHT22;30472;49.490;10.972;2023-07-31T09:45:40;23.50;99.90
44747;DHT22;30472;49.490;10.972;2023-07-31T09:48:11;23.20;99.90
44747;DHT22;30472;49.490;10.972;2023-07-31T09:50:38;23.10;99.90
44747;DHT22;30472;49.490;10.972;2023-07-31T09:53:08;22.40;99.90
44747;DHT22;30472;49.490;10.972;2023-07-31T09:55:34;21.90;99.90
44747;DHT22;30472;49.490;10.972;2023-07-31T09:58:09;21.50;99.90
44747;DHT22;30472;49.490;10.972;2023-07-31T10:00:35;21.60;99.90
44747;DHT22;30472;49.490;10.972;2023-07-31T10:03:06;21.70;99.90
44747;DHT22;30472;49.490;10.972;2023-07-31T10:05:50;21.90;99.90
44747;DHT22;30472;49.490;10.972;2023-07-31T10:08:16;21.90;99.90
44747;DHT22;30472;49.490;10.972;2023-07-31T10:10:44;21.80;99.90
44747;DHT22;30472;49.490;10.972;2023-07-31T10:13:12;22.10;99.90
44747;DHT22;30472;49.490;10.972;2023-07-31T10:15:38;22.60;99.90
44747;DHT22;30472;49.490;10.972;2023-07-31T10:18:06;22.80;99.90
44747;DHT22;30472;49.490;10.972;2023-07-31T10:20:32;22.70;99.90
44747;DHT22;30472;49.490;10.972;2023-07-31T10:22:59;22.60;99.90
44747;DHT22;30472;49.490;10.972;2023-07-31T10:25:26;23.10;99.90
44747;DHT22;30472;49.490;10.972;2023-07-31T10:27:53;22.90;99.90
44747;DHT22;30472;49.490;10.972;2023-07-31T10:30:23;23.30;99.90
44747;DHT22;30472;49.490;10.972;2023-07-31T10:32:51;23.30;99.90
44747;DHT22;30472;49.490;10.972;2023-07-31T10:35:18;23.10;99.90
44747;DHT22;30472;49.490;10.972;2023-07-31T10:37:44;23.20;99.90
44747;DHT22;30472;49.490;10.972;2023-07-31T10:40:17;23.90;99.90
44747;DHT22;30472;49.490;10.972;2023-07-31T10:48:01;23.70;99.90
44747;DHT22;30472;49.490;10.972;2023-07-31T10:50:28;24.00;99.90
44747;DHT22;30472;49.490;10.972;2023-07-31T10:52:56;24.10;99.90
44747;DHT22;30472;49.490;10.972;2023-07-31T10:55:42;24.00;99.90
44747;DHT22;30472;49.490;10.972;2023-07-31T10:58:13;22.90;99.90
44747;DHT22;30472;49.490;10.972;2023-07-31T11:00:43;22.60;99.90
44747;DHT22;30472;49.490;10.972;2023-07-31T11:03:19;22.70;99.90
44747;DHT22;30472;49.490;10.972;2023-07-31T11:06:03;22.50;99.90
44747;DHT22;30472;49.490;10.972;2023-07-31T11:08:31;23.20;99.90
44747;DHT22;30472;49.490;10.972;2023-07-31T11:15:57;22.40;99.90
44747;DHT22;30472;49.490;10.972;2023-07-31T11:18:25;22.40;99.90
44747;DHT22;30472;49.490;10.972;2023-07-31T11:20:51;22.10;99.90
44747;DHT22;30472;49.490;10.972;2023-07-31T11:23:17;22.50;99.90
44747;DHT22;30472;49.490;10.972;2023-07-31T11:25:43;22.40;99.90
44747;DHT22;30472;49.490;10.972;2023-07-31T11:28:16;22.10;99.90
44747;DHT22;30472;49.490;10.972;2023-07-31T11:30:43;22.20;99.90
44747;DHT22;30472;49.490;10.972;2023-07-31T11:33:11;22.20;99.90
44747;DHT22;30472;49.490;10.972;2023-07-31T11:38:11;21.90;99.90
44747;DHT22;30472;49.490;10.972;2023-07-31T11:40:43;21.80;99.90
44747;DHT22;30472;49.490;10.972;2023-07-31T11:43:10;21.70;99.90
44747;DHT22;30472;49.490;10.972;2023-07-31T11:45:37;21.70;99.90
44747;DHT22;30472;49.490;10.972;2023-07-31T11:48:03;21.70;99.90
44747;DHT22;30472;49.490;10.972;2023-07-31T11:50:33;22.00;99.90
44747;DHT22;30472;49.490;10.972;2023-07-31T11:53:03;22.00;99.90
44747;DHT22;30472;49.490;10.972;2023-07-31T11:55:31;22.30;99.90
44747;DHT22;30472;49.490;10.972;2023-07-31T11:57:58;22.30;99.90
44747;DHT22;30472;49.490;10.972;2023-07-31T12:00:25;22.60;99.90
44747;DHT22;30472;49.490;10.972;2023-07-31T12:02:53;22.80;99.90
44747;DHT22;30472;49.490;10.972;2023-07-31T12:05:19;23.10;99.90
44747;DHT22;30472;49.490;10.972;2023-07-31T12:10:11;22.80;99.90
44747;DHT22;30472;49.490;10.972;2023-07-31T12:12:36;22.60;99.90
44747;DHT22;30472;49.490;10.972;2023-07-31T12:15:02;22.50;99.90
44747;DHT22;30472;49.490;10.972;2023-07-31T12:17:28;22.50;99.90
44747;DHT22;30472;49.490;10.972;2023-07-31T12:19:53;22.30;99.90
44747;DHT22;30472;49.490;10.972;2023-07-31T12:22:20;22.00;99.90
44747;DHT22;30472;49.490;10.972;2023-07-31T12:24:46;22.10;99.90
44747;DHT22;30472;49.490;10.972;2023-07-31T12:27:13;22.50;99.90
44747;DHT22;30472;49.490;10.972;2023-07-31T12:29:39;22.70;99.90
44747;DHT22;30472;49.490;10.972;2023-07-31T12:32:24;22.90;99.90
44747;DHT22;30472;49.490;10.972;2023-07-31T12:34:51;23.10;99.90
44747;DHT22;30472;49.490;10.972;2023-07-31T12:37:17;22.80;99.90
44747;DHT22;30472;49.490;10.972;2023-07-31T12:39:42;22.70;99.90
44747;DHT22;30472;49.490;10.972;2023-07-31T12:42:08;22.50;99.90
44747;DHT22;30472;49.490;10.972;2023-07-31T12:44:34;22.40;99.90
44747;DHT22;30472;49.490;10.972;2023-07-31T12:46:59;22.70;99.90
44747;DHT22;30472;49.490;10.972;2023-07-31T12:49:25;23.00;99.90
44747;DHT22;30472;49.490;10.972;2023-07-31T12:51:50;22.80;99.90
44747;DHT22;30472;49.490;10.972;2023-07-31T12:54:16;22.70;99.90
44747;DHT22;30472;49.490;10.972;2023-07-31T12:56:42;23.10;99.90
44747;DHT22;30472;49.490;10.972;2023-07-31T12:59:07;23.30;99.90
44747;DHT22;30472;49.490;10.972;2023-07-31T13:01:33;23.20;99.90
44747;DHT22;30472;49.490;10.972;2023-07-31T13:03:58;23.30;99.90
44747;DHT22;30472;49.490;10.972;2023-07-31T13:06:25;23.00;99.90
44747;DHT22;30472;49.490;10.972;2023-07-31T13:08:51;23.10;99.90
44747;DHT22;30472;49.490;10.972;2023-07-31T13:11:17;23.10;99.90
44747;DHT22;30472;49.490;10.972;2023-07-31T13:13:42;23.20;99.90
44747;DHT22;30472;49.490;10.972;2023-07-31T13:16:08;23.30;99.90
44747;DHT22;30472;49.490;10.972;2023-07-31T13:18:33;23.40;99.90
44747;DHT22;30472;49.490;10.972;2023-07-31T13:20:59;23.80;99.90
44747;DHT22;30472;49.490;10.972;2023-07-31T13:23:24;23.90;99.90
44747;DHT22;30472;49.490;10.972;2023-07-31T13:25:50;23.70;99.90
44747;DHT22;30472;49.490;10.972;2023-07-31T13:28:15;23.80;99.90
44747;DHT22;30472;49.490;10.972;2023-07-31T13:30:41;24.20;99.90
44747;DHT22;30472;49.490;10.972;2023-07-31T13:33:06;24.40;99.90
44747;DHT22;30472;49.490;10.972;2023-07-31T13:35:32;25.10;99.90
44747;DHT22;30472;49.490;10.972;2023-07-31T13:37:58;24.70;99.90
44747;DHT22;30472;49.490;10.972;2023-07-31T13:40:23;24.00;99.90
44747;DHT22;30472;49.490;10.972;2023-07-31T13:42:49;23.90;99.90
44747;DHT22;30472;49.490;10.972;2023-07-31T13:45:14;23.40;99.90
44747;DHT22;30472;49.490;10.972;2023-07-31T13:47:40;23.50;99.90
44747;DHT22;30472;49.490;10.972;2023-07-31T13:50:06;24.10;99.90
44747;DHT22;30472;49.490;10.972;2023-07-31T13:52:32;24.00;99.90
44747;DHT22;30472;49.490;10.972;2023-07-31T13:54:57;24.80;99.90
44747;DHT22;30472;49.490;10.972;2023-07-31T13:57:23;25.10;99.90
44747;DHT22;30472;49.490;10.972;2023-07-31T13:59:48;25.10;99.90
44747;DHT22;30472;49.490;10.972;2023-07-31T14:02:14;24.80;99.90
44747;DHT22;30472;49.490;10.972;2023-07-31T14:04:40;24.80;99.90
44747;DHT22;30472;49.490;10.972;2023-07-31T14:07:06;24.40;99.90
44747;DHT22;30472;49.490;10.972;2023-07-31T14:09:32;23.60;99.90
44747;DHT22;30472;49.490;10.972;2023-07-31T14:11:57;23.80;99.90
44747;DHT22;30472;49.490;10.972;2023-07-31T14:14:23;23.80;99.90
44747;DHT22;30472;49.490;10.972;2023-07-31T14:16:48;23.90;99.90
44747;DHT22;30472;49.490;10.972;2023-07-31T14:19:14;23.90;99.90
44747;DHT22;30472;49.490;10.972;2023-07-31T14:21:40;24.00;99.90
44747;DHT22;30472;49.490;10.972;2023-07-31T14:24:05;23.70;99.90
44747;DHT22;30472;49.490;10.972;2023-07-31T14:26:31;23.60;99.90
44747;DHT22;30472;49.490;10.972;2023-07-31T14:28:57;24.00;99.90
44747;DHT22;30472;49.490;10.972;2023-07-31T14:31:23;24.10;99.90
44747;DHT22;30472;49.490;10.972;2023-07-31T14:33:48;23.80;99.90
44747;DHT22;30472;49.490;10.972;2023-07-31T14:36:14;23.70;99.90
44747;DHT22;30472;49.490;10.972;2023-07-31T14:38:39;23.70;99.90
44747;DHT22;30472;49.490;10.972;2023-07-31T14:41:05;23.50;99.90
44747;DHT22;30472;49.490;10.972;2023-07-31T14:43:31;23.10;99.90
44747;DHT22;30472;49.490;10.972;2023-07-31T14:45:57;23.00;99.90
44747;DHT22;30472;49.490;10.972;2023-07-31T14:48:25;23.20;99.90
44747;DHT22;30472;49.490;10.972;2023-07-31T14:50:51;23.10;99.90
44747;DHT22;30472;49.490;10.972;2023-07-31T14:53:16;22.90;99.90
44747;DHT22;30472;49.490;10.972;2023-07-31T14:55:42;23.10;99.90
44747;DHT22;30472;49.490;10.972;2023-07-31T14:58:07;22.90;99.90
44747;DHT22;30472;49.490;10.972;2023-07-31T15:00:35;22.80;99.90
44747;DHT22;30472;49.490;10.972;2023-07-31T15:03:01;22.80;99.90
44747;DHT22;30472;49.490;10.972;2023-07-31T15:05:27;22.70;99.90
44747;DHT22;30472;49.490;10.972;2023-07-31T15:07:52;22.50;99.90
44747;DHT22;30472;49.490;10.972;2023-07-31T15:10:18;22.40;99.90
44747;DHT22;30472;49.490;10.972;2023-07-31T15:12:43;22.40;99.90
44747;DHT22;30472;49.490;10.972;2023-07-31T15:15:09;22.30;99.90
44747;DHT22;30472;49.490;10.972;2023-07-31T15:17:35;22.30;99.90
44747;DHT22;30472;49.490;10.972;2023-07-31T15:20:00;22.40;99.90
44747;DHT22;30472;49.490;10.972;2023-07-31T15:22:26;22.30;99.90
44747;DHT22;30472;49.490;10.972;2023-07-31T15:24:51;22.40;99.90
44747;DHT22;30472;49.490;10.972;2023-07-31T15:27:17;22.40;99.90
44747;DHT22;30472;49.490;10.972;2023-07-31T15:29:43;22.30;99.90
44747;DHT22;30472;49.490;10.972;2023-07-31T15:32:08;22.20;99.90
44747;DHT22;30472;49.490;10.972;2023-07-31T15:34:34;22.40;99.90
44747;DHT22;30472;49.490;10.972;2023-07-31T15:36:59;22.40;99.90